createdAt,value
2018-07-07T00:00:40.103Z,69.00
2018-07-07T00:02:42.176Z,68.70
2018-07-07T00:04:44.262Z,68.30
2018-07-07T00:06:46.293Z,69.90
2018-07-07T00:08:48.405Z,69.30
2018-07-07T00:10:55.730Z,74.10
2018-07-07T00:12:57.769Z,74.20
2018-07-07T00:14:59.795Z,74.00
2018-07-07T00:17:01.847Z,75.50
2018-07-07T00:19:03.927Z,74.30
2018-07-07T00:21:05.988Z,76.80
2018-07-07T00:23:08.109Z,79.50
2018-07-07T00:25:14.140Z,80.40
2018-07-07T00:27:16.230Z,81.00
2018-07-07T00:29:18.210Z,80.10
2018-07-07T00:31:20.247Z,80.70
2018-07-07T00:33:22.276Z,82.30
2018-07-07T00:35:24.330Z,83.10
2018-07-07T00:37:26.384Z,83.90
2018-07-07T00:39:28.464Z,83.90
2018-07-07T00:41:30.514Z,85.00
2018-07-07T00:43:32.565Z,85.00
2018-07-07T00:45:34.636Z,84.20
2018-07-07T00:47:36.757Z,85.20
2018-07-07T00:49:45.500Z,84.30
2018-07-07T00:51:47.528Z,81.40
2018-07-07T00:53:49.536Z,79.10
2018-07-07T00:55:51.592Z,78.70
2018-07-07T00:57:56.284Z,78.30
2018-07-07T00:59:59.313Z,77.20
2018-07-07T01:02:01.411Z,78.10
2018-07-07T01:04:04.551Z,78.70
2018-07-07T01:06:07.213Z,77.20
2018-07-07T01:08:10.941Z,78.40
2018-07-07T01:10:13.029Z,79.20
2018-07-07T01:12:15.153Z,77.40
2018-07-07T01:14:21.413Z,78.60
2018-07-07T01:16:23.546Z,76.40
2018-07-07T01:18:25.602Z,78.10
2018-07-07T01:20:27.677Z,77.60
2018-07-07T01:22:29.754Z,77.00
2018-07-07T01:24:31.796Z,77.20
2018-07-07T01:26:33.840Z,78.30
2018-07-07T01:28:35.896Z,79.30
2018-07-07T01:30:37.935Z,79.20
2018-07-07T01:32:39.966Z,79.40
2018-07-07T01:34:42.025Z,77.00
2018-07-07T01:36:44.656Z,78.80
2018-07-07T01:38:46.676Z,74.40
2018-07-07T01:40:48.860Z,75.00
2018-07-07T01:42:50.877Z,82.00
2018-07-07T01:44:52.920Z,83.90
2018-07-07T01:46:54.950Z,89.00
2018-07-07T01:48:57.024Z,88.80
2018-07-07T01:50:59.108Z,88.10
2018-07-07T01:53:01.147Z,89.40
2018-07-07T01:55:03.314Z,89.20
2018-07-07T01:57:05.353Z,87.60
2018-07-07T01:59:07.400Z,87.20
2018-07-07T21:53:04.694Z,86.60
2018-07-07T21:55:07.547Z,38.50
2018-07-07T21:57:14.233Z,37.50
2018-07-07T21:59:17.438Z,38.30
2018-07-07T22:01:53.506Z,37.80
2018-07-07T22:04:01.430Z,38.00
2018-07-07T22:06:05.644Z,40.20
2018-07-07T22:08:13.522Z,39.60
2018-07-07T22:10:15.577Z,39.80
2018-07-07T22:12:17.617Z,40.90
2018-07-07T22:14:19.674Z,41.50
2018-07-07T22:16:21.739Z,41.00
2018-07-07T22:18:23.837Z,41.50
2018-07-07T22:20:29.628Z,43.80
2018-07-07T22:22:31.703Z,43.60
2018-07-07T22:24:33.869Z,43.20
2018-07-07T22:26:35.905Z,44.80
2018-07-07T22:28:37.961Z,44.80
2018-07-07T22:30:40.058Z,45.10
2018-07-07T22:32:42.190Z,45.70
2018-07-07T22:34:44.277Z,46.10
2018-07-07T22:36:46.349Z,46.70
2018-07-07T22:38:55.904Z,48.30
2018-07-07T22:40:58.973Z,47.70
2018-07-07T22:43:01.323Z,48.90
2018-07-07T22:45:03.406Z,48.70
2018-07-07T22:47:05.522Z,49.50
2018-07-07T22:49:07.577Z,49.50
2018-07-07T22:51:09.645Z,51.40
2018-07-07T22:53:11.721Z,51.00
2018-07-07T22:55:13.768Z,51.30
2018-07-07T22:57:15.819Z,53.70
2018-07-07T22:59:17.877Z,54.20
2018-07-07T23:01:19.953Z,54.20
2018-07-07T23:03:22.007Z,54.80
2018-07-07T23:05:24.089Z,54.50
2018-07-07T23:07:26.154Z,55.60
2018-07-07T23:09:28.210Z,56.10
2018-07-07T23:11:30.261Z,55.00
2018-07-07T23:13:32.350Z,56.00
2018-07-07T23:15:34.454Z,56.20
2018-07-07T23:17:36.538Z,56.60
2018-07-07T23:19:38.628Z,55.90
2018-07-07T23:21:40.709Z,56.50
2018-07-07T23:23:42.804Z,56.60
2018-07-07T23:25:44.870Z,56.00
2018-07-07T23:27:47.909Z,56.70
2018-07-07T23:29:49.970Z,57.20
2018-07-07T23:31:52.050Z,58.30
2018-07-07T23:33:54.121Z,60.20
2018-07-07T23:35:56.278Z,60.80
2018-07-07T23:37:58.352Z,60.90
2018-07-07T23:40:00.790Z,60.00
2018-07-07T23:42:02.942Z,61.30
2018-07-07T23:44:05.023Z,62.30
2018-07-07T23:46:07.237Z,61.80
2018-07-07T23:48:09.292Z,63.50
2018-07-07T23:50:11.362Z,64.60
2018-07-07T23:52:13.439Z,64.80
2018-07-07T23:54:15.491Z,66.20
2018-07-07T23:56:17.568Z,67.80
2018-07-07T23:58:19.629Z,68.20
